createdAt,value
2018-06-12T00:01:19.148Z,97631.02
2018-06-12T00:03:47.797Z,97628.53
2018-06-12T00:06:16.443Z,97628.50
2018-06-12T00:08:45.087Z,97632.74
2018-06-12T00:11:13.733Z,97629.89
2018-06-12T00:13:42.459Z,97632.89
2018-06-12T00:16:11.183Z,97627.91
2018-06-12T00:18:40.992Z,97631.50
2018-06-12T00:21:09.693Z,97635.23
2018-06-12T00:23:38.409Z,97634.85
2018-06-12T00:26:07.104Z,97637.95
2018-06-12T00:28:35.726Z,97641.30
2018-06-12T00:31:04.459Z,97645.21
2018-06-12T00:33:33.032Z,97645.36
2018-06-12T00:36:01.679Z,97638.45
2018-06-12T00:38:30.386Z,97636.97
2018-06-12T00:40:58.974Z,97639.16
2018-06-12T00:43:27.661Z,97637.44
2018-06-12T00:45:56.406Z,97646.97
2018-06-12T00:48:25.116Z,97644.11
2018-06-12T00:50:53.877Z,97640.66
2018-06-12T00:53:22.648Z,97642.02
2018-06-12T00:55:51.335Z,97641.97
2018-06-12T00:58:20.040Z,97636.95
2018-06-12T01:00:48.727Z,97647.78
2018-06-12T01:03:17.339Z,97646.13
2018-06-12T01:05:46.225Z,97642.98
2018-06-12T01:08:14.958Z,97641.66
2018-06-12T01:10:43.853Z,97647.07
2018-06-12T01:13:12.547Z,97651.02
2018-06-12T01:15:41.166Z,97644.55
2018-06-12T01:18:09.879Z,97638.63
2018-06-12T01:20:38.684Z,97635.63
2018-06-12T01:23:07.358Z,97640.63
2018-06-12T01:25:36.050Z,97641.66
2018-06-12T01:28:04.845Z,97640.14
2018-06-12T01:30:33.507Z,97646.39
2018-06-12T01:33:02.199Z,97651.31
2018-06-12T01:35:30.888Z,97645.17
2018-06-12T01:37:59.623Z,97655.58
2018-06-12T01:40:28.274Z,97651.56
2018-06-12T01:42:57.016Z,97642.95
2018-06-12T01:45:25.775Z,97636.91
2018-06-12T01:47:54.521Z,97640.05
2018-06-12T01:50:23.267Z,97638.66
2018-06-12T01:52:51.975Z,97641.03
2018-06-12T01:55:20.649Z,97647.05
2018-06-12T01:57:49.392Z,97644.50
2018-06-12T02:00:18.062Z,97641.02
2018-06-12T02:02:46.680Z,97643.60
2018-06-12T02:05:15.390Z,97647.91
2018-06-12T02:07:44.103Z,97642.70
2018-06-12T02:10:12.741Z,97647.09
2018-06-12T02:12:41.385Z,97644.66
2018-06-12T02:15:10.110Z,97646.33
2018-06-12T02:17:38.820Z,97653.17
2018-06-12T02:20:07.523Z,97655.39
2018-06-12T02:22:36.156Z,97652.44
2018-06-12T02:25:04.929Z,97655.89
2018-06-12T02:27:33.553Z,97654.66
2018-06-12T02:30:02.227Z,97647.98
2018-06-12T02:32:30.944Z,97644.16
2018-06-12T02:34:59.737Z,97645.33
2018-06-12T02:37:28.380Z,97638.77
2018-06-12T02:39:57.035Z,97625.17
2018-06-12T02:42:25.882Z,97624.44
2018-06-12T02:44:54.541Z,97620.06
2018-06-12T02:47:23.275Z,97621.41
2018-06-12T02:49:51.963Z,97623.34
2018-06-12T02:52:20.774Z,97620.67
2018-06-12T02:54:49.549Z,97619.11
2018-06-12T02:57:18.203Z,97614.78
2018-06-12T02:59:46.936Z,97619.81
2018-06-12T03:02:15.546Z,97615.59
2018-06-12T03:04:44.181Z,97617.85
2018-06-12T03:07:12.814Z,97613.07
2018-06-12T03:09:41.403Z,97612.09
2018-06-12T03:12:10.037Z,97612.11
2018-06-12T03:14:39.898Z,97606.33
2018-06-12T03:17:08.619Z,97609.55
2018-06-12T03:19:37.370Z,97607.37
2018-06-12T03:22:06.056Z,97612.59
2018-06-12T03:24:34.732Z,97616.14
2018-06-12T03:27:03.392Z,97614.05
2018-06-12T03:29:32.098Z,97611.08
2018-06-12T03:32:00.782Z,97609.73
2018-06-12T03:34:29.476Z,97612.00
2018-06-12T03:36:58.119Z,97605.80
2018-06-12T03:39:26.834Z,97613.25
2018-06-12T03:41:55.529Z,97608.06
2018-06-12T03:44:24.299Z,97608.09
2018-06-12T03:46:52.994Z,97616.89
2018-06-12T03:49:21.658Z,97618.86
2018-06-12T03:51:50.415Z,97622.26
2018-06-12T03:54:19.014Z,97621.91
2018-06-12T03:56:47.762Z,97623.11
2018-06-12T03:59:16.393Z,97627.80
2018-06-12T04:01:45.014Z,97625.80
2018-06-12T04:04:13.799Z,97621.41
2018-06-12T04:06:42.436Z,97618.93
2018-06-12T04:09:11.233Z,97623.65
2018-06-12T04:11:39.983Z,97622.53
2018-06-12T04:14:08.627Z,97621.45
2018-06-12T04:16:37.630Z,97626.06
2018-06-12T04:19:07.428Z,97621.81
2018-06-12T04:21:36.462Z,97614.98
2018-06-12T04:24:05.200Z,97612.28
2018-06-12T04:26:33.975Z,97610.90
2018-06-12T04:29:02.751Z,97610.41
2018-06-12T04:31:31.439Z,97605.36
2018-06-12T04:34:01.253Z,97606.76
2018-06-12T04:36:29.983Z,97600.37
2018-06-12T04:38:58.731Z,97606.73
2018-06-12T04:41:27.552Z,97606.42
2018-06-12T04:43:56.289Z,97601.70
2018-06-12T04:46:24.968Z,97602.34
2018-06-12T04:48:53.591Z,97605.05
2018-06-12T04:51:22.231Z,97599.73
2018-06-12T04:53:50.881Z,97601.69
2018-06-12T04:56:19.642Z,97598.55
2018-06-12T04:58:48.458Z,97601.42
2018-06-12T05:01:17.963Z,97602.25
2018-06-12T05:03:46.844Z,97602.55
2018-06-12T05:06:15.683Z,97609.27
2018-06-12T05:08:44.620Z,97617.84
2018-06-12T05:11:13.392Z,97616.48
2018-06-12T05:13:42.133Z,97611.14
2018-06-12T05:16:10.810Z,97620.00
2018-06-12T05:18:39.577Z,97613.78
2018-06-12T05:21:08.275Z,97609.55
2018-06-12T05:23:37.035Z,97613.39
2018-06-12T05:26:05.719Z,97617.00
2018-06-12T05:28:34.350Z,97614.14
2018-06-12T05:31:03.279Z,97615.99
2018-06-12T05:33:32.121Z,97611.75
2018-06-12T05:36:00.889Z,97606.21
2018-06-12T05:38:29.641Z,97609.44
2018-06-12T05:40:58.341Z,97609.09
2018-06-12T05:43:27.084Z,97610.94
2018-06-12T05:45:55.888Z,97617.41
2018-06-12T05:48:24.460Z,97623.97
2018-06-12T05:50:53.073Z,97622.34
2018-06-12T05:53:21.758Z,97624.58
2018-06-12T05:55:50.559Z,97625.38
2018-06-12T05:58:19.316Z,97616.14
2018-06-12T06:00:47.939Z,97622.66
2018-06-12T06:03:16.659Z,97631.58
2018-06-12T06:05:45.385Z,97637.89
2018-06-12T06:08:14.025Z,97646.05
2018-06-12T06:10:42.790Z,97649.02
2018-06-12T06:13:11.561Z,97652.98
2018-06-12T06:15:40.225Z,97657.90
2018-06-12T06:18:08.844Z,97655.48
2018-06-12T06:20:37.594Z,97658.88
2018-06-12T06:23:06.324Z,97659.58
2018-06-12T06:25:35.124Z,97663.07
2018-06-12T06:28:03.788Z,97659.38
2018-06-12T06:30:32.482Z,97662.94
2018-06-12T06:33:01.111Z,97656.78
2018-06-12T06:35:29.771Z,97651.00
2018-06-12T06:37:59.319Z,97653.79
2018-06-12T06:40:28.049Z,97653.66
2018-06-12T06:42:56.724Z,97658.19
2018-06-12T06:45:25.353Z,97659.48
2018-06-12T06:47:54.131Z,97657.80
2018-06-12T06:50:22.893Z,97659.69
2018-06-12T06:52:51.769Z,97655.17
2018-06-12T06:55:20.460Z,97658.16
2018-06-12T06:57:49.159Z,97656.16
2018-06-12T07:00:17.821Z,97664.22
2018-06-12T07:02:46.603Z,97663.37
2018-06-12T07:05:15.422Z,97667.97
2018-06-12T07:07:44.235Z,97661.59
2018-06-12T07:10:13.065Z,97659.52
2018-06-12T07:12:41.805Z,97664.04
2018-06-12T07:15:10.610Z,97666.90
2018-06-12T07:17:39.224Z,97661.37
2018-06-12T07:20:07.938Z,97661.70
2018-06-12T07:22:36.624Z,97658.66
2018-06-12T07:25:05.442Z,97657.64
2018-06-12T07:27:34.193Z,97662.70
2018-06-12T07:30:03.012Z,97657.30
2018-06-12T07:32:31.681Z,97656.63
2018-06-12T07:35:00.359Z,97656.80
2018-06-12T07:37:29.104Z,97663.64
2018-06-12T07:39:57.658Z,97663.48
2018-06-12T07:42:26.289Z,97662.81
2018-06-12T07:44:55.050Z,97655.18
2018-06-12T07:47:23.780Z,97662.03
2018-06-12T07:49:52.543Z,97662.80
2018-06-12T07:52:21.285Z,97657.75
2018-06-12T07:54:50.018Z,97664.05
2018-06-12T07:57:18.752Z,97657.80
2018-06-12T07:59:47.557Z,97657.35
2018-06-12T08:02:16.230Z,97656.24
2018-06-12T08:04:44.927Z,97649.74
2018-06-12T08:07:13.584Z,97651.24
2018-06-12T08:09:42.279Z,97653.61
2018-06-12T08:12:10.953Z,97651.61
2018-06-12T08:14:39.641Z,97651.70
2018-06-12T08:17:08.365Z,97648.58
2018-06-12T08:19:37.019Z,97644.56
2018-06-12T08:22:05.782Z,97648.56
2018-06-12T08:24:34.461Z,97652.29
2018-06-12T08:27:03.181Z,97649.94
2018-06-12T08:29:31.878Z,97657.59
2018-06-12T08:32:00.571Z,97652.80
2018-06-12T08:34:29.267Z,97652.91
2018-06-12T08:36:57.891Z,97653.05
2018-06-12T08:39:26.549Z,97656.39
2018-06-12T08:41:55.334Z,97653.67
2018-06-12T08:44:24.072Z,97658.56
2018-06-12T08:46:52.856Z,97657.01
2018-06-12T08:49:21.519Z,97645.34
2018-06-12T08:51:50.212Z,97652.13
2018-06-12T08:54:18.824Z,97656.95
2018-06-12T08:56:47.511Z,97656.96
2018-06-12T08:59:16.238Z,97655.05
2018-06-12T09:01:44.852Z,97653.93
2018-06-12T09:04:13.493Z,97649.41
2018-06-12T09:06:42.210Z,97641.75
2018-06-12T09:09:10.933Z,97647.83
2018-06-12T09:11:39.640Z,97647.69
2018-06-12T09:14:08.357Z,97657.39
2018-06-12T09:16:37.098Z,97651.28
2018-06-12T09:19:06.138Z,97647.89
2018-06-12T09:21:34.904Z,97642.77
2018-06-12T09:24:03.703Z,97640.21
2018-06-12T09:26:32.351Z,97640.52
2018-06-12T09:29:01.040Z,97637.16
2018-06-12T09:31:29.768Z,97633.23
2018-06-12T09:33:58.441Z,97634.11
2018-06-12T09:36:32.321Z,97633.06
2018-06-12T09:39:01.053Z,97631.23
2018-06-12T09:41:29.687Z,97635.26
2018-06-12T09:43:58.361Z,97636.25
2018-06-12T09:46:27.158Z,97631.14
2018-06-12T09:48:55.881Z,97634.45
2018-06-12T09:51:24.561Z,97640.17
2018-06-12T09:53:53.269Z,97628.85
2018-06-12T09:56:21.968Z,97626.98
2018-06-12T09:58:50.650Z,97631.07
2018-06-12T10:01:22.321Z,97630.48
2018-06-12T10:03:53.001Z,97628.91
2018-06-12T10:06:21.700Z,97626.77
2018-06-12T10:08:50.958Z,97631.14
2018-06-12T10:11:19.568Z,97623.99
2018-06-12T10:13:48.246Z,97630.16
2018-06-12T10:16:16.891Z,97621.71
2018-06-12T10:18:45.671Z,97624.24
2018-06-12T10:21:14.695Z,97618.47
2018-06-12T10:23:43.353Z,97620.34
2018-06-12T10:26:12.113Z,97608.97
2018-06-12T10:28:40.948Z,97622.73
2018-06-12T10:31:09.769Z,97619.66
2018-06-12T10:33:38.479Z,97617.59
2018-06-12T10:36:07.463Z,97614.02
2018-06-12T10:38:36.146Z,97614.21
2018-06-12T10:41:04.773Z,97612.09
2018-06-12T10:43:33.427Z,97605.44
2018-06-12T10:46:02.115Z,97601.55
2018-06-12T10:48:30.856Z,97597.05
2018-06-12T10:50:59.468Z,97599.50
2018-06-12T10:53:28.108Z,97599.01
2018-06-12T10:55:56.772Z,97603.18
2018-06-12T10:58:25.559Z,97596.93
2018-06-12T11:00:54.454Z,97601.33
2018-06-12T11:03:23.176Z,97592.36
2018-06-12T11:05:52.257Z,97591.25
2018-06-12T11:08:21.014Z,97590.28
2018-06-12T11:10:50.111Z,97586.63
2018-06-12T11:13:19.138Z,97591.53
2018-06-12T11:15:47.812Z,97606.48
2018-06-12T11:18:18.493Z,97606.89
2018-06-12T11:20:47.168Z,97607.91
2018-06-12T11:23:17.636Z,97618.05
2018-06-12T11:25:46.463Z,97613.27
2018-06-12T11:28:15.255Z,97615.58
2018-06-12T11:30:43.953Z,97619.47
2018-06-12T11:33:12.720Z,97637.39
2018-06-12T11:35:41.483Z,97631.75
2018-06-12T11:38:10.141Z,97624.78
2018-06-12T11:40:38.927Z,97625.03
2018-06-12T11:43:07.617Z,97620.25
2018-06-12T11:48:09.409Z,97626.99
2018-06-12T11:50:38.149Z,97631.14
2018-06-12T11:53:06.796Z,97622.77
2018-06-12T11:55:35.594Z,97625.97
2018-06-12T11:58:04.305Z,97628.64
2018-06-12T12:00:32.975Z,97626.47
2018-06-12T12:03:01.805Z,97631.63
2018-06-12T12:05:30.887Z,97644.06
2018-06-12T12:07:59.548Z,97655.42
2018-06-12T12:10:28.371Z,97653.09
2018-06-12T12:12:57.097Z,97661.06
2018-06-12T12:15:25.962Z,97660.45
2018-06-12T12:17:57.420Z,97656.10
2018-06-12T12:20:26.362Z,97654.11
2018-06-12T12:22:55.083Z,97665.75
2018-06-12T12:25:24.101Z,97649.80
2018-06-12T12:27:53.097Z,97651.54
2018-06-12T12:30:23.399Z,97644.38
2018-06-12T12:32:52.296Z,97655.56
2018-06-12T12:35:21.101Z,97660.70
2018-06-12T12:37:50.160Z,97663.23
2018-06-12T12:40:18.924Z,97657.63
2018-06-12T12:42:47.868Z,97664.26
2018-06-12T12:45:17.021Z,97655.41
2018-06-12T12:47:46.156Z,97645.51
2018-06-12T12:50:15.213Z,97653.61
2018-06-12T12:52:44.109Z,97648.93
2018-06-12T12:55:13.111Z,97653.30
2018-06-12T12:57:43.078Z,97648.69
2018-06-12T13:00:12.288Z,97649.09
2018-06-12T13:02:41.208Z,97657.59
2018-06-12T13:05:09.973Z,97651.42
2018-06-12T13:07:38.848Z,97644.23
2018-06-12T13:10:07.727Z,97639.61
2018-06-12T13:12:36.692Z,97639.64
2018-06-12T13:15:05.650Z,97641.79
2018-06-12T13:17:34.516Z,97643.95
2018-06-12T13:20:03.251Z,97644.95
2018-06-12T13:22:31.962Z,97648.22
2018-06-12T13:25:00.703Z,97649.39
2018-06-12T13:27:29.466Z,97645.54
2018-06-12T13:29:58.335Z,97648.85
2018-06-12T13:32:27.224Z,97646.56
2018-06-12T13:34:56.066Z,97645.86
2018-06-12T13:37:25.904Z,97649.47
2018-06-12T13:39:54.840Z,97661.80
2018-06-12T13:42:23.557Z,97652.75
2018-06-12T13:44:52.557Z,97648.90
2018-06-12T13:47:21.413Z,97648.16
2018-06-12T13:49:50.212Z,97647.19
2018-06-12T13:52:19.371Z,97645.20
2018-06-12T14:00:46.713Z,97640.50
2018-06-12T14:03:18.147Z,97642.11
2018-06-12T14:05:48.777Z,97642.58
2018-06-12T14:08:19.545Z,97640.28
2018-06-12T14:10:49.318Z,97638.13
2018-06-12T14:13:19.541Z,97635.00
2018-06-12T14:15:51.198Z,97627.85
2018-06-12T14:18:20.856Z,97617.15
2018-06-12T14:20:52.194Z,97621.18
2018-06-12T14:23:21.900Z,97611.04
2018-06-12T14:25:52.531Z,97614.89
2018-06-12T14:28:22.984Z,97610.56
2018-06-12T14:30:52.754Z,97612.20
2018-06-12T14:33:22.472Z,97604.17
2018-06-12T14:35:53.357Z,97603.61
2018-06-12T14:38:25.278Z,97600.66
2018-06-12T14:40:55.885Z,97595.71
2018-06-12T14:43:25.897Z,97606.78
2018-06-12T14:45:54.861Z,97619.77
2018-06-12T14:48:23.919Z,97627.48
2018-06-12T14:50:52.673Z,97627.92
2018-06-12T14:53:21.487Z,97614.67
2018-06-12T14:55:50.347Z,97609.68
2018-06-12T14:58:19.323Z,97596.94
2018-06-12T15:00:48.222Z,97597.58
2018-06-12T15:03:16.849Z,97592.80
2018-06-12T15:05:45.552Z,97590.13
2018-06-12T15:08:14.555Z,97594.85
2018-06-12T15:10:43.406Z,97594.19
2018-06-12T15:13:12.213Z,97595.06
2018-06-12T15:15:41.045Z,97601.50
2018-06-12T15:18:10.078Z,97597.90
2018-06-12T15:20:38.870Z,97591.73
2018-06-12T15:23:07.592Z,97597.27
2018-06-12T15:25:36.427Z,97597.86
2018-06-12T15:28:05.099Z,97596.95
2018-06-12T15:30:33.897Z,97602.35
2018-06-12T15:33:02.632Z,97600.36
2018-06-12T15:35:31.405Z,97593.64
2018-06-12T15:38:00.177Z,97591.22
2018-06-12T15:40:28.988Z,97584.59
2018-06-12T15:42:57.732Z,97578.02
2018-06-12T15:45:26.582Z,97581.95
2018-06-12T15:47:55.252Z,97579.94
2018-06-12T15:50:24.159Z,97577.69
2018-06-12T15:52:52.930Z,97581.30
2018-06-12T15:55:21.662Z,97577.63
2018-06-12T15:57:50.482Z,97572.08
2018-06-12T16:00:19.202Z,97575.50
2018-06-12T16:02:47.937Z,97578.04
2018-06-12T16:05:17.086Z,97571.16
2018-06-12T16:07:45.784Z,97565.64
2018-06-12T16:10:14.583Z,97566.08
2018-06-12T16:12:43.305Z,97566.17
2018-06-12T16:15:12.166Z,97565.45
2018-06-12T16:17:41.022Z,97568.63
2018-06-12T16:20:09.807Z,97563.25
2018-06-12T16:22:38.483Z,97565.43
2018-06-12T16:25:07.231Z,97559.61
2018-06-12T16:27:36.026Z,97551.86
2018-06-12T16:30:04.987Z,97555.30
2018-06-12T16:32:33.697Z,97546.95
2018-06-12T16:35:02.594Z,97536.77
2018-06-12T16:37:31.391Z,97531.32
2018-06-12T16:40:00.125Z,97526.95
2018-06-12T16:42:28.758Z,97528.56
2018-06-12T16:44:57.461Z,97536.36
2018-06-12T16:47:26.347Z,97543.81
2018-06-12T16:49:55.033Z,97537.55
2018-06-12T16:52:23.691Z,97537.52
2018-06-12T16:54:52.400Z,97531.46
2018-06-12T16:57:21.179Z,97537.00
2018-06-12T16:59:49.981Z,97537.30
2018-06-12T17:02:18.639Z,97534.84
2018-06-12T17:04:47.289Z,97540.63
2018-06-12T17:07:16.228Z,97544.20
2018-06-12T17:09:45.025Z,97544.78
2018-06-12T17:12:13.833Z,97549.20
2018-06-12T17:14:42.748Z,97542.52
2018-06-12T17:17:11.480Z,97541.46
2018-06-12T17:19:40.258Z,97532.30
2018-06-12T17:22:10.188Z,97533.78
2018-06-12T17:24:39.120Z,97536.84
2018-06-12T17:27:07.888Z,97540.92
2018-06-12T17:29:36.664Z,97546.25
2018-06-12T17:32:05.408Z,97541.13
2018-06-12T17:34:34.015Z,97543.94
2018-06-12T17:37:02.749Z,97532.95
2018-06-12T17:39:31.738Z,97536.27
2018-06-12T17:42:00.586Z,97547.17
2018-06-12T17:44:30.276Z,97543.66
2018-06-12T17:46:58.929Z,97545.43
2018-06-12T17:49:27.543Z,97548.36
2018-06-12T17:51:56.410Z,97548.32
2018-06-12T17:54:25.095Z,97555.63
2018-06-12T17:56:53.902Z,97555.89
2018-06-12T17:59:22.541Z,97555.78
2018-06-12T18:01:51.194Z,97563.50
2018-06-12T18:04:19.897Z,97568.05
2018-06-12T18:06:48.524Z,97568.63
2018-06-12T18:09:17.139Z,97558.30
2018-06-12T18:11:45.861Z,97558.47
2018-06-12T18:14:14.618Z,97570.98
2018-06-12T18:16:43.270Z,97575.20
2018-06-12T18:19:11.888Z,97577.66
2018-06-12T18:21:40.623Z,97565.80
2018-06-12T18:24:09.287Z,97569.95
2018-06-12T18:26:38.056Z,97572.38
2018-06-12T18:29:06.831Z,97573.44
2018-06-12T18:31:35.720Z,97567.02
2018-06-12T18:34:04.555Z,97571.97
2018-06-12T18:36:33.358Z,97564.73
2018-06-12T18:39:02.128Z,97566.62
2018-06-12T18:41:30.745Z,97562.16
2018-06-12T18:43:59.378Z,97566.22
2018-06-12T18:46:28.150Z,97572.23
2018-06-12T18:48:57.082Z,97575.69
2018-06-12T18:51:25.956Z,97571.88
2018-06-12T18:53:54.670Z,97575.06
2018-06-12T18:56:23.496Z,97580.59
2018-06-12T18:58:52.161Z,97584.37
2018-06-12T19:01:20.985Z,97583.16
2018-06-12T19:03:49.695Z,97588.36
2018-06-12T19:06:18.486Z,97586.98
2018-06-12T19:08:47.442Z,97583.17
2018-06-12T19:11:16.973Z,97590.91
2018-06-12T19:13:46.779Z,97598.61
2018-06-12T19:16:15.541Z,97599.91
2018-06-12T19:18:44.219Z,97607.45
2018-06-12T19:21:13.052Z,97604.91
2018-06-12T19:23:42.096Z,97610.83
2018-06-12T19:26:11.773Z,97611.86
2018-06-12T19:28:40.804Z,97611.20
2018-06-12T19:31:10.026Z,97619.03
2018-06-12T19:33:38.904Z,97625.11
2018-06-12T19:36:07.769Z,97624.45
2018-06-12T19:38:36.638Z,97629.77
2018-06-12T19:41:05.520Z,97632.06
2018-06-12T19:43:34.244Z,97634.91
2018-06-12T19:46:03.120Z,97636.25
2018-06-12T19:48:32.073Z,97633.78
2018-06-12T19:51:01.258Z,97629.30
2018-06-12T19:53:29.970Z,97638.63
2018-06-12T19:55:58.814Z,97635.86
2018-06-12T19:58:27.790Z,97647.05
2018-06-12T20:00:56.707Z,97646.30
2018-06-12T20:03:25.720Z,97636.50
2018-06-12T20:05:54.748Z,97649.12
2018-06-12T20:08:23.673Z,97658.28
2018-06-12T20:10:52.663Z,97657.48
2018-06-12T20:13:21.557Z,97662.02
2018-06-12T20:15:50.463Z,97656.69
2018-06-12T20:18:19.252Z,97672.31
2018-06-12T20:20:48.060Z,97667.01
2018-06-12T20:23:16.748Z,97660.53
2018-06-12T20:25:45.605Z,97655.63
2018-06-12T20:28:14.367Z,97661.95
2018-06-12T20:30:43.156Z,97669.06
2018-06-12T20:33:12.071Z,97668.26
2018-06-12T20:35:40.977Z,97668.14
2018-06-12T20:38:09.837Z,97672.06
2018-06-12T20:40:38.731Z,97675.94
2018-06-12T20:43:07.710Z,97675.31
2018-06-12T20:45:36.613Z,97672.95
2018-06-12T20:48:05.493Z,97672.97
2018-06-12T20:50:34.225Z,97675.70
2018-06-12T20:53:03.022Z,97683.95
2018-06-12T20:55:31.880Z,97679.66
2018-06-12T20:58:00.735Z,97682.48
2018-06-12T21:00:29.494Z,97685.66
2018-06-12T21:02:58.246Z,97687.71
2018-06-12T21:05:27.327Z,97686.64
2018-06-12T21:07:56.173Z,97682.47
2018-06-12T21:10:24.950Z,97686.73
2018-06-12T21:12:53.839Z,97686.17
2018-06-12T21:15:22.443Z,97689.97
2018-06-12T21:17:51.210Z,97684.09
2018-06-12T21:20:19.834Z,97690.16
2018-06-12T21:22:48.473Z,97687.51
2018-06-12T21:25:17.091Z,97683.13
2018-06-12T21:27:45.802Z,97689.45
2018-06-12T21:30:14.503Z,97682.06
2018-06-12T21:32:43.173Z,97683.70
2018-06-12T21:35:11.891Z,97683.90
2018-06-12T21:37:40.652Z,97684.00
2018-06-12T21:40:09.270Z,97685.46
2018-06-12T21:42:38.021Z,97691.51
2018-06-12T21:45:06.873Z,97694.88
2018-06-12T21:47:35.542Z,97696.45
2018-06-12T21:50:04.391Z,97697.27
2018-06-12T21:52:33.098Z,97693.54
2018-06-12T21:55:01.710Z,97699.66
2018-06-12T21:57:30.370Z,97702.98
2018-06-12T21:59:59.029Z,97709.69
2018-06-12T22:02:27.832Z,97704.36
2018-06-12T22:04:56.573Z,97703.09
2018-06-12T22:07:25.574Z,97709.73
2018-06-12T22:09:54.333Z,97713.66
2018-06-12T22:12:23.246Z,97723.48
2018-06-12T22:14:52.015Z,97719.82
2018-06-12T22:17:20.679Z,97721.16
2018-06-12T22:19:49.264Z,97719.31
2018-06-12T22:22:17.989Z,97720.08
2018-06-12T22:24:46.671Z,97718.94
2018-06-12T22:27:15.337Z,97717.28
2018-06-12T22:29:44.033Z,97725.98
2018-06-12T22:32:12.668Z,97728.25
2018-06-12T22:34:41.331Z,97726.18
2018-06-12T22:37:10.205Z,97725.40
2018-06-12T22:39:39.120Z,97721.87
2018-06-12T22:42:08.005Z,97726.67
2018-06-12T22:44:36.734Z,97720.08
2018-06-12T22:47:05.732Z,97726.36
2018-06-12T22:49:34.545Z,97720.48
2018-06-12T22:52:03.254Z,97721.74
2018-06-12T22:54:32.073Z,97725.45
2018-06-12T22:57:00.630Z,97730.13
2018-06-12T22:59:29.349Z,97731.30
2018-06-12T23:01:58.029Z,97738.53
2018-06-12T23:04:26.690Z,97734.44
2018-06-12T23:06:55.371Z,97739.66
2018-06-12T23:09:24.000Z,97733.66
2018-06-12T23:11:52.743Z,97738.73
2018-06-12T23:14:21.445Z,97738.02
2018-06-12T23:16:50.184Z,97739.89
2018-06-12T23:19:18.910Z,97737.23
2018-06-12T23:22:03.058Z,97746.11
2018-06-12T23:24:31.775Z,97739.95
2018-06-12T23:27:00.394Z,97738.91
2018-06-12T23:29:29.111Z,97745.15
2018-06-12T23:31:57.766Z,97740.83
2018-06-12T23:34:26.464Z,97744.42
2018-06-12T23:36:55.295Z,97745.52
2018-06-12T23:39:24.079Z,97737.95
2018-06-12T23:41:52.799Z,97738.24
2018-06-12T23:44:21.435Z,97738.28
2018-06-12T23:46:50.221Z,97742.95
2018-06-12T23:49:18.958Z,97743.73
2018-06-12T23:51:47.837Z,97748.16
2018-06-12T23:54:16.654Z,97748.24
2018-06-12T23:56:45.424Z,97747.13
2018-06-12T23:59:14.174Z,97742.47
